Time;durP1;ratioP1;P1;durP2;ratioP2;P2;SDS_P1;SDS_P2;PMS_P1;PMS_P2;Temp;Humidity;BMP_temperature;BMP_pressure;BME280_temperature;BME280_humidity;BME280_pressure;Samples;Min_cycle;Max_cycle;Signal;HPM_P1;HPM_P2
2023/12/17 00:01:21;;;;;;;;;;;;;;;21.49;21.74;99873.59;4996552;28;1010;-73
2023/12/17 00:03:46;;;;;;;;;;;;;;;21.66;21.57;99870.03;4996359;28;1029;-73
2023/12/17 00:06:12;;;;;;;;;;;;;;;20.94;22.44;99873.75;4996344;28;985;-73
2023/12/17 00:08:37;;;;;;;;;;;;;;;21.10;22.23;99870.59;4996288;28;952;-72
2023/12/17 00:11:03;;;;;;;;;;;;;;;21.82;21.28;99861.97;5012341;28;1127;-73
2023/12/17 00:13:28;;;;;;;;;;;;;;;21.40;22.06;99882.50;4992597;28;1239;-73
2023/12/17 00:15:54;;;;;;;;;;;;;;;21.81;21.65;99871.69;4992696;28;1987;-72
2023/12/17 00:18:19;;;;;;;;;;;;;;;22.18;21.10;99873.38;4995791;28;991;-72
2023/12/17 00:20:45;;;;;;;;;;;;;;;21.40;21.91;99878.81;4979709;28;1094;-72
2023/12/17 00:23:10;;;;;;;;;;;;;;;21.85;21.14;99877.34;4981687;28;965;-73
2023/12/17 00:25:36;;;;;;;;;;;;;;;21.32;22.13;99878.81;4988419;28;1252;-73
2023/12/17 00:28:02;;;;;;;;;;;;;;;21.43;22.00;99876.00;4998968;28;962;-73
2023/12/17 00:30:27;;;;;;;;;;;;;;;21.37;21.80;99880.44;4998974;28;1128;-73
2023/12/17 00:32:53;;;;;;;;;;;;;;;21.19;22.14;99871.84;5015294;28;1325;-72
2023/12/17 00:35:18;;;;;;;;;;;;;;;21.45;21.89;99875.59;4966209;28;1914;-73
2023/12/17 00:37:44;;;;;;;;;;;;;;;21.47;21.72;99871.19;4998695;28;972;-73
2023/12/17 00:40:09;;;;;;;;;;;;;;;21.51;21.58;99882.53;5014783;28;975;-73
2023/12/17 00:42:35;;;;;;;;;;;;;;;21.26;21.92;99880.38;4998723;28;913;-72
2023/12/17 00:45:01;;;;;;;;;;;;;;;21.97;21.01;99870.50;4998695;28;993;-73
2023/12/17 00:47:26;;;;;;;;;;;;;;;22.07;21.06;99872.50;5015183;28;1013;-72
2023/12/17 00:49:52;;;;;;;;;;;;;;;22.05;21.12;99883.47;5016197;28;1042;-73
2023/12/17 00:52:19;;;;;;;;;;;;;;;21.67;21.49;99894.31;4998390;28;1119;-73
2023/12/17 00:54:45;;;;;;;;;;;;;;;21.44;21.60;99888.16;5012835;28;1983;-72
2023/12/17 00:57:10;;;;;;;;;;;;;;;21.65;21.44;99891.06;4978807;28;1039;-74
2023/12/17 00:59:36;;;;;;;;;;;;;;;21.67;21.11;99899.97;5011657;28;1251;-73
2023/12/17 01:02:01;;;;;;;;;;;;;;;21.49;21.52;99899.09;4978507;28;1007;-73
2023/12/17 01:04:27;;;;;;;;;;;;;;;21.79;20.95;99891.09;4995277;28;971;-73
2023/12/17 01:06:52;;;;;;;;;;;;;;;21.50;21.65;99895.88;4994898;28;950;-72
2023/12/17 01:09:18;;;;;;;;;;;;;;;21.69;21.46;99894.72;4994832;28;1148;-73
2023/12/17 01:11:43;;;;;;;;;;;;;;;21.95;21.06;99898.44;4995027;28;1024;-74
2023/12/17 01:14:09;;;;;;;;;;;;;;;21.79;21.34;99902.44;4994837;28;1906;-73
2023/12/17 01:16:34;;;;;;;;;;;;;;;20.97;21.95;99902.03;4994932;28;959;-73
2023/12/17 01:19:00;;;;;;;;;;;;;;;21.55;21.33;99908.81;4994728;28;1029;-73
2023/12/17 01:21:25;;;;;;;;;;;;;;;21.77;21.23;99910.53;4994823;28;1005;-72
2023/12/17 01:23:51;;;;;;;;;;;;;;;21.53;21.22;99905.59;5007072;28;941;-73
2023/12/17 01:26:22;;;;;;;;;;;;;;;21.89;21.13;99900.84;5034496;28;962;-73
2023/12/17 01:28:48;;;;;;;;;;;;;;;21.45;21.77;99904.75;5033865;28;1188;-73
2023/12/17 01:31:14;;;;;;;;;;;;;;;21.64;21.12;99895.09;5033960;28;1053;-73
2023/12/17 01:33:39;;;;;;;;;;;;;;;21.96;20.98;99900.03;5034065;28;1153;-73
2023/12/17 01:36:05;;;;;;;;;;;;;;;21.28;21.66;99894.94;5033663;28;1914;-73
2023/12/17 01:38:31;;;;;;;;;;;;;;;21.95;20.84;99887.09;5013875;28;1034;-73
2023/12/17 01:40:56;;;;;;;;;;;;;;;21.51;21.43;99891.03;4997677;28;1007;-72
2023/12/17 01:43:22;;;;;;;;;;;;;;;21.57;21.54;99890.22;4997811;28;1206;-73
2023/12/17 01:45:47;;;;;;;;;;;;;;;21.47;21.69;99887.38;4997620;28;1110;-73
2023/12/17 01:48:13;;;;;;;;;;;;;;;21.58;21.27;99896.72;4997656;28;1128;-73
2023/12/17 01:50:38;;;;;;;;;;;;;;;21.71;21.38;99897.97;4997772;28;1109;-73
2023/12/17 01:53:04;;;;;;;;;;;;;;;21.28;21.51;99897.75;5013843;28;1078;-72
2023/12/17 01:55:29;;;;;;;;;;;;;;;21.82;20.95;99890.31;5014059;28;1914;-72
2023/12/17 01:57:55;;;;;;;;;;;;;;;21.96;21.02;99897.22;4997827;28;1143;-73
2023/12/17 02:00:21;;;;;;;;;;;;;;;21.92;20.82;99890.75;4997775;28;994;-73
2023/12/17 02:02:47;;;;;;;;;;;;;;;21.66;21.14;99895.53;4997543;28;972;-72
2023/12/17 02:05:12;;;;;;;;;;;;;;;21.78;20.95;99895.16;4997402;28;1036;-72
2023/12/17 02:07:39;;;;;;;;;;;;;;;22.12;20.62;99897.66;4997509;28;1004;-73
2023/12/17 02:10:05;;;;;;;;;;;;;;;21.85;21.13;99900.00;4997438;28;1250;-72
2023/12/17 02:12:31;;;;;;;;;;;;;;;21.39;21.41;99905.53;4997232;28;951;-73
2023/12/17 02:14:56;;;;;;;;;;;;;;;21.33;21.58;99908.75;5013674;28;1985;-72
2023/12/17 02:17:28;;;;;;;;;;;;;;;20.86;22.47;99911.69;5014705;28;942;-73
2023/12/17 02:19:54;;;;;;;;;;;;;;;21.62;21.13;99920.19;5014916;28;873;-72
2023/12/17 02:22:20;;;;;;;;;;;;;;;21.72;21.24;99910.94;5015853;28;1171;-73
2023/12/17 02:24:45;;;;;;;;;;;;;;;21.52;21.54;99918.13;5018940;28;1148;-72
2023/12/17 02:27:11;;;;;;;;;;;;;;;21.34;21.85;99915.22;5019978;28;957;-73
2023/12/17 02:29:38;;;;;;;;;;;;;;;21.43;21.77;99912.81;5019845;28;902;-73
2023/12/17 02:32:04;;;;;;;;;;;;;;;21.57;21.54;99912.09;5020387;28;941;-73
2023/12/17 02:34:30;;;;;;;;;;;;;;;22.37;20.60;99909.03;5018542;28;1891;-73
2023/12/17 02:36:55;;;;;;;;;;;;;;;22.49;20.23;99900.13;5001012;28;1155;-72
2023/12/17 02:39:21;;;;;;;;;;;;;;;22.52;20.45;99902.16;5017760;28;982;-73
2023/12/17 02:41:46;;;;;;;;;;;;;;;22.32;20.39;99884.72;4997602;28;1255;-73
2023/12/17 02:44:12;;;;;;;;;;;;;;;22.63;20.25;99900.09;4997848;28;1429;-73
2023/12/17 02:46:37;;;;;;;;;;;;;;;21.95;20.93;99882.22;4997747;28;974;-72
2023/12/17 02:49:03;;;;;;;;;;;;;;;21.20;21.87;99887.63;4997569;28;1084;-73
2023/12/17 02:51:31;;;;;;;;;;;;;;;21.81;21.40;99893.53;4980925;28;1349;-73
2023/12/17 02:53:56;;;;;;;;;;;;;;;22.23;20.78;99884.34;4997884;28;934;-72
2023/12/17 02:56:21;;;;;;;;;;;;;;;22.56;20.28;99882.28;4980862;28;1918;-73
2023/12/17 02:58:47;;;;;;;;;;;;;;;22.70;19.87;99882.28;4997583;28;949;-73
2023/12/17 03:01:12;;;;;;;;;;;;;;;22.59;20.06;99890.00;4997075;28;1245;-73
2023/12/17 03:03:38;;;;;;;;;;;;;;;21.26;21.48;99886.03;4997491;28;1062;-72
2023/12/17 03:06:04;;;;;;;;;;;;;;;21.00;21.90;99889.13;4996901;28;1053;-73
2023/12/17 03:08:29;;;;;;;;;;;;;;;20.99;22.11;99881.84;4996982;28;1039;-73
2023/12/17 03:10:55;;;;;;;;;;;;;;;22.08;20.95;99874.16;4980901;28;1007;-72
2023/12/17 03:13:20;;;;;;;;;;;;;;;22.44;20.49;99877.03;4997127;28;1097;-73
2023/12/17 03:15:46;;;;;;;;;;;;;;;22.66;19.96;99875.81;4997279;28;2000;-73
2023/12/17 03:18:11;;;;;;;;;;;;;;;22.68;20.10;99881.06;4972358;28;1285;-73
2023/12/17 03:20:37;;;;;;;;;;;;;;;22.69;20.12;99875.00;4977585;28;1298;-73
2023/12/17 03:23:02;;;;;;;;;;;;;;;22.60;20.16;99880.28;4972276;28;945;-74
2023/12/17 03:25:28;;;;;;;;;;;;;;;21.53;21.35;99880.09;4977500;28;968;-72
2023/12/17 03:27:53;;;;;;;;;;;;;;;21.38;21.47;99887.72;4958227;29;947;-73
2023/12/17 03:30:19;;;;;;;;;;;;;;;22.06;20.73;99890.75;4941942;29;1006;-73
2023/12/17 03:32:45;;;;;;;;;;;;;;;22.56;20.25;99887.97;4957107;28;1124;-73
2023/12/17 03:35:10;;;;;;;;;;;;;;;22.59;20.33;99892.84;4925554;29;1977;-72
2023/12/17 03:37:36;;;;;;;;;;;;;;;22.64;20.17;99889.59;4942050;29;999;-72
2023/12/17 03:40:01;;;;;;;;;;;;;;;22.63;20.20;99891.59;4957730;29;943;-73
2023/12/17 03:42:27;;;;;;;;;;;;;;;22.63;20.24;99888.75;4958188;29;989;-73
2023/12/17 03:44:52;;;;;;;;;;;;;;;22.25;20.57;99889.59;4957789;29;990;-73
2023/12/17 03:47:18;;;;;;;;;;;;;;;21.22;21.63;99902.19;4925768;29;1137;-73
2023/12/17 03:49:43;;;;;;;;;;;;;;;20.93;22.00;99904.03;4958129;29;1117;-73
2023/12/17 03:52:09;;;;;;;;;;;;;;;21.72;21.46;99907.28;4941827;29;952;-73
2023/12/17 03:54:34;;;;;;;;;;;;;;;22.26;20.76;99897.69;4942734;28;1918;-73
2023/12/17 03:57:00;;;;;;;;;;;;;;;22.67;20.15;99900.13;4976727;28;994;-73
2023/12/17 03:59:25;;;;;;;;;;;;;;;22.45;20.45;99904.19;4965435;28;975;-73
2023/12/17 04:01:51;;;;;;;;;;;;;;;22.75;20.00;99907.41;4996293;28;1099;-73
2023/12/17 04:04:16;;;;;;;;;;;;;;;22.48;20.31;99909.03;4996195;28;1050;-73
2023/12/17 04:06:42;;;;;;;;;;;;;;;22.05;20.77;99904.09;4996722;28;945;-73
2023/12/17 04:09:08;;;;;;;;;;;;;;;22.12;20.85;99897.66;4997678;28;984;-73
2023/12/17 04:11:33;;;;;;;;;;;;;;;22.43;20.53;99900.94;5016905;28;891;-73
2023/12/17 04:13:59;;;;;;;;;;;;;;;22.32;20.75;99904.56;5017911;28;847;-73
2023/12/17 04:16:24;;;;;;;;;;;;;;;21.93;21.05;99896.00;5017908;28;1950;-73
2023/12/17 04:18:50;;;;;;;;;;;;;;;22.15;20.90;99898.91;5016924;28;967;-73
2023/12/17 04:21:15;;;;;;;;;;;;;;;22.01;20.72;99905.31;4995860;28;855;-73
2023/12/17 04:23:41;;;;;;;;;;;;;;;21.81;21.14;99917.03;4995937;28;787;-73
2023/12/17 04:26:06;;;;;;;;;;;;;;;21.33;22.00;99914.41;4995755;28;1021;-73
2023/12/17 04:28:32;;;;;;;;;;;;;;;21.57;21.49;99917.75;4995943;28;983;-72
2023/12/17 04:30:57;;;;;;;;;;;;;;;21.50;21.59;99912.03;4979251;28;1048;-72
2023/12/17 04:33:23;;;;;;;;;;;;;;;22.08;20.87;99911.00;4979293;28;1129;-72
2023/12/17 04:35:48;;;;;;;;;;;;;;;21.51;21.75;99913.69;4995609;28;1906;-72
2023/12/17 04:38:16;;;;;;;;;;;;;;;20.86;22.22;99920.16;4995585;28;1201;-73
2023/12/17 04:40:45;;;;;;;;;;;;;;;21.30;22.10;99914.41;4956748;29;997;-72
2023/12/17 04:43:11;;;;;;;;;;;;;;;21.70;21.50;99910.50;4956655;29;947;-73
2023/12/17 04:45:36;;;;;;;;;;;;;;;21.95;21.25;99910.56;4955878;28;995;-73
2023/12/17 04:48:02;;;;;;;;;;;;;;;21.39;21.97;99919.69;4956625;29;1134;-73
2023/12/17 04:50:27;;;;;;;;;;;;;;;20.92;22.47;99929.91;4956791;29;994;-73
2023/12/17 04:52:53;;;;;;;;;;;;;;;21.47;21.70;99921.34;4959807;28;1180;-73
2023/12/17 04:55:18;;;;;;;;;;;;;;;21.69;21.50;99930.75;4975822;28;1975;-73
2023/12/17 04:57:44;;;;;;;;;;;;;;;21.54;21.70;99929.88;4975949;28;1022;-72
2023/12/17 05:00:09;;;;;;;;;;;;;;;21.58;21.66;99925.03;4975655;28;1077;-74
2023/12/17 05:02:35;;;;;;;;;;;;;;;21.73;21.61;99918.22;4975666;28;1454;-73
2023/12/17 05:05:00;;;;;;;;;;;;;;;21.00;22.26;99923.09;4975791;28;1175;-73
2023/12/17 05:07:26;;;;;;;;;;;;;;;21.24;21.99;99922.44;4975624;28;849;-73
2023/12/17 05:09:52;;;;;;;;;;;;;;;21.29;22.02;99933.34;4975583;28;1389;-73
2023/12/17 05:12:18;;;;;;;;;;;;;;;21.45;21.70;99937.91;5002652;28;1415;-73
2023/12/17 05:14:43;;;;;;;;;;;;;;;20.40;22.97;99940.38;4996769;28;1996;-73
2023/12/17 05:17:09;;;;;;;;;;;;;;;21.39;21.71;99940.31;4979652;28;692;-73
2023/12/17 05:19:35;;;;;;;;;;;;;;;21.41;21.86;99943.56;4996105;28;879;-73
2023/12/17 05:22:00;;;;;;;;;;;;;;;21.96;21.25;99945.38;4981754;28;1030;-73
2023/12/17 05:24:26;;;;;;;;;;;;;;;22.12;20.75;99937.34;5014425;28;963;-73
2023/12/17 05:26:51;;;;;;;;;;;;;;;22.29;21.00;99941.47;4997936;28;920;-73
2023/12/17 05:29:17;;;;;;;;;;;;;;;22.66;20.51;99935.38;4998201;28;751;-73
2023/12/17 05:31:42;;;;;;;;;;;;;;;22.64;20.44;99929.31;4997460;28;884;-73
2023/12/17 05:34:08;;;;;;;;;;;;;;;22.59;20.45;99938.25;4997627;28;1902;-73
2023/12/17 05:36:34;;;;;;;;;;;;;;;22.74;19.91;99939.84;5014029;28;876;-72
2023/12/17 05:39:00;;;;;;;;;;;;;;;22.67;20.43;99939.84;4997499;28;916;-73
2023/12/17 05:41:25;;;;;;;;;;;;;;;22.76;20.18;99954.44;5014019;28;780;-73
2023/12/17 05:43:51;;;;;;;;;;;;;;;21.97;20.86;99953.50;4997455;28;880;-73
2023/12/17 05:46:16;;;;;;;;;;;;;;;21.50;21.49;99954.53;4997133;28;1064;-73
2023/12/17 05:48:42;;;;;;;;;;;;;;;21.74;21.32;99955.84;4997282;28;817;-73
2023/12/17 05:51:08;;;;;;;;;;;;;;;22.18;21.24;99957.66;4997537;28;1061;-72
2023/12/17 05:53:33;;;;;;;;;;;;;;;22.44;20.69;99953.63;4980721;28;1107;-73
2023/12/17 05:55:59;;;;;;;;;;;;;;;22.60;20.35;99962.56;4976513;28;1923;-73
2023/12/17 05:58:25;;;;;;;;;;;;;;;21.62;21.61;99968.34;4959910;28;760;-72
2023/12/17 06:00:50;;;;;;;;;;;;;;;21.82;21.36;99968.84;4975796;28;1115;-74
2023/12/17 06:03:16;;;;;;;;;;;;;;;21.65;21.46;99976.03;4975691;28;760;-72
2023/12/17 06:05:41;;;;;;;;;;;;;;;21.96;21.24;99979.41;4976009;28;803;-72
2023/12/17 06:08:07;;;;;;;;;;;;;;;21.24;22.24;99984.72;4977169;28;811;-73
2023/12/17 06:10:32;;;;;;;;;;;;;;;20.51;23.18;99976.03;4976154;28;732;-73
2023/12/17 06:12:58;;;;;;;;;;;;;;;21.27;22.16;99978.25;4975481;28;736;-72
2023/12/17 06:15:23;;;;;;;;;;;;;;;21.04;22.63;99980.53;4975287;28;1906;-72
2023/12/17 06:17:49;;;;;;;;;;;;;;;20.97;22.59;99981.28;4975946;28;799;-72
2023/12/17 06:20:14;;;;;;;;;;;;;;;20.72;22.73;99964.09;4975735;28;843;-72
2023/12/17 06:22:40;;;;;;;;;;;;;;;20.40;23.51;99969.47;4977114;28;767;-72
2023/12/17 06:25:06;;;;;;;;;;;;;;;20.54;23.45;99968.81;4976603;28;736;-73
2023/12/17 06:27:33;;;;;;;;;;;;;;;20.59;23.31;99974.13;4975495;28;784;-73
2023/12/17 06:29:58;;;;;;;;;;;;;;;20.36;23.67;99967.78;4973893;28;1003;-73
2023/12/17 06:32:24;;;;;;;;;;;;;;;20.42;23.64;99966.25;4958515;28;884;-73
2023/12/17 06:34:49;;;;;;;;;;;;;;;20.80;22.86;99960.13;4968705;28;1973;-73
2023/12/17 06:37:15;;;;;;;;;;;;;;;20.59;22.95;99959.97;4974423;28;847;-72
2023/12/17 06:39:43;;;;;;;;;;;;;;;20.17;23.80;99949.88;4958269;28;925;-72
2023/12/17 06:42:09;;;;;;;;;;;;;;;20.31;23.72;99943.50;4958305;28;783;-73
2023/12/17 06:44:35;;;;;;;;;;;;;;;20.67;22.93;99950.31;4935865;29;903;-73
2023/12/17 06:47:01;;;;;;;;;;;;;;;21.55;21.82;99948.47;4935786;29;911;-73
2023/12/17 06:49:26;;;;;;;;;;;;;;;22.08;21.19;99942.19;4935981;29;1030;-73
2023/12/17 06:51:52;;;;;;;;;;;;;;;22.27;21.15;99944.66;4935808;29;744;-72
2023/12/17 06:54:17;;;;;;;;;;;;;;;22.53;20.76;99937.00;4935729;29;1993;-72
2023/12/17 06:56:44;;;;;;;;;;;;;;;22.48;20.52;99943.06;4919785;29;910;-73
2023/12/17 06:59:09;;;;;;;;;;;;;;;22.29;20.90;99947.94;4935928;29;808;-72
2023/12/17 07:01:35;;;;;;;;;;;;;;;22.00;21.23;99951.88;4919678;29;907;-73
2023/12/17 07:04:01;;;;;;;;;;;;;;;21.94;21.15;99959.16;4919933;29;1012;-73
2023/12/17 07:06:27;;;;;;;;;;;;;;;21.53;21.81;99963.03;4934446;29;1169;-73
2023/12/17 07:08:53;;;;;;;;;;;;;;;21.53;22.14;99974.38;4956660;28;884;-73
2023/12/17 07:11:19;;;;;;;;;;;;;;;21.65;21.59;99973.22;4958287;29;920;-73
2023/12/17 07:13:44;;;;;;;;;;;;;;;21.56;21.59;99964.28;4958397;29;847;-73
2023/12/17 07:16:23;;;;;;;;;;;;;;;21.60;21.68;99962.25;4974115;28;1902;-73
2023/12/17 07:18:48;;;;;;;;;;;;;;;21.50;21.84;99965.84;4978316;28;1337;-73
2023/12/17 07:21:15;;;;;;;;;;;;;;;21.66;21.71;99972.03;4994971;28;858;-73
2023/12/17 07:23:40;;;;;;;;;;;;;;;21.64;21.86;99960.25;4980653;28;999;-73
2023/12/17 07:26:06;;;;;;;;;;;;;;;21.92;21.47;99961.59;4980712;28;1009;-73
2023/12/17 07:28:31;;;;;;;;;;;;;;;21.61;21.64;99961.06;4996558;28;1012;-72
2023/12/17 07:30:57;;;;;;;;;;;;;;;21.69;21.73;99956.25;4996943;28;819;-72
2023/12/17 07:33:22;;;;;;;;;;;;;;;21.59;21.74;99949.31;4999138;28;1226;-73
2023/12/17 07:35:48;;;;;;;;;;;;;;;21.63;21.71;99950.16;5016173;28;1975;-73
2023/12/17 07:38:13;;;;;;;;;;;;;;;21.62;21.69;99947.72;5016448;28;911;-73
2023/12/17 07:40:41;;;;;;;;;;;;;;;21.30;21.95;99942.72;5015973;28;981;-72
2023/12/17 07:43:07;;;;;;;;;;;;;;;21.48;21.85;99943.59;4999697;28;877;-73
2023/12/17 07:45:36;;;;;;;;;;;;;;;21.47;22.00;99941.19;4999593;28;1315;-73
2023/12/17 07:48:02;;;;;;;;;;;;;;;21.45;21.96;99943.56;5015714;28;743;-73
2023/12/17 07:50:28;;;;;;;;;;;;;;;21.41;22.12;99942.78;5016071;28;896;-72
2023/12/17 07:52:53;;;;;;;;;;;;;;;21.71;21.75;99945.31;4999714;28;1275;-73
2023/12/17 07:55:19;;;;;;;;;;;;;;;21.42;22.05;99955.72;4969005;28;1903;-73
2023/12/17 07:57:44;;;;;;;;;;;;;;;21.82;21.39;99963.19;4993110;28;1068;-73
2023/12/17 08:00:11;;;;;;;;;;;;;;;21.51;21.98;99964.66;4979865;28;839;-73
2023/12/17 08:02:37;;;;;;;;;;;;;;;21.66;21.52;99960.69;4979668;28;1209;-72
2023/12/17 08:05:05;;;;;;;;;;;;;;;21.71;21.58;99960.31;4963501;28;1108;-73
2023/12/17 08:07:31;;;;;;;;;;;;;;;21.59;21.81;99957.81;4979922;28;767;-72
2023/12/17 08:09:57;;;;;;;;;;;;;;;21.23;22.49;99956.78;4979698;28;910;-73
2023/12/17 08:12:22;;;;;;;;;;;;;;;21.54;21.95;99958.19;4964177;28;1457;-73
2023/12/17 08:14:48;;;;;;;;;;;;;;;21.43;21.94;99963.00;4992331;28;1906;-73
2023/12/17 08:17:13;;;;;;;;;;;;;;;21.42;22.10;99962.19;4976538;28;1459;-72
2023/12/17 08:19:39;;;;;;;;;;;;;;;21.40;22.05;99955.28;4976186;28;1024;-73
2023/12/17 08:22:04;;;;;;;;;;;;;;;21.59;22.08;99957.81;4976327;28;1405;-72
2023/12/17 08:24:30;;;;;;;;;;;;;;;21.56;21.96;99961.47;4976070;28;1070;-74
2023/12/17 08:26:57;;;;;;;;;;;;;;;21.52;21.89;99960.63;4976142;28;1266;-72
2023/12/17 08:29:23;;;;;;;;;;;;;;;21.70;21.61;99953.00;4960108;28;804;-72
2023/12/17 08:31:48;;;;;;;;;;;;;;;21.75;21.78;99946.94;4975022;28;1422;-73
2023/12/17 08:34:14;;;;;;;;;;;;;;;21.75;21.75;99935.59;4995701;28;1902;-73
2023/12/17 08:36:41;;;;;;;;;;;;;;;21.46;21.98;99928.22;4979176;28;837;-73
2023/12/17 08:39:11;;;;;;;;;;;;;;;21.41;22.12;99931.44;4993054;28;1229;-73
2023/12/17 08:41:37;;;;;;;;;;;;;;;21.63;22.15;99930.31;4959831;28;744;-72
2023/12/17 08:44:03;;;;;;;;;;;;;;;21.75;21.63;99929.94;4975988;28;938;-73
2023/12/17 08:46:29;;;;;;;;;;;;;;;21.75;21.97;99912.94;4976357;28;792;-72
2023/12/17 08:48:54;;;;;;;;;;;;;;;21.67;21.76;99919.81;5007427;28;1147;-72
2023/12/17 08:51:20;;;;;;;;;;;;;;;21.32;22.33;99935.44;4979140;28;842;-73
2023/12/17 08:53:46;;;;;;;;;;;;;;;21.39;22.42;99922.50;4994829;28;933;-73
2023/12/17 08:56:12;;;;;;;;;;;;;;;21.49;21.92;99927.41;4994938;28;1910;-73
2023/12/17 08:58:37;;;;;;;;;;;;;;;21.38;22.08;99926.56;4994699;28;923;-73
2023/12/17 09:01:03;;;;;;;;;;;;;;;21.36;22.14;99926.16;4979369;28;736;-72
2023/12/17 09:03:28;;;;;;;;;;;;;;;21.55;22.04;99931.47;4979178;28;871;-73
2023/12/17 09:05:54;;;;;;;;;;;;;;;21.79;22.01;99941.28;4995015;28;830;-73
2023/12/17 09:08:19;;;;;;;;;;;;;;;21.58;22.22;99939.19;4994812;28;917;-72
2023/12/17 09:10:45;;;;;;;;;;;;;;;21.54;22.00;99942.00;4978810;28;788;-73
2023/12/17 09:13:11;;;;;;;;;;;;;;;21.44;22.20;99944.78;4978229;28;939;-74
2023/12/17 09:15:37;;;;;;;;;;;;;;;21.46;22.24;99940.38;4978467;28;1993;-73
2023/12/17 09:18:04;;;;;;;;;;;;;;;21.44;22.43;99936.28;4994901;28;982;-73
2023/12/17 09:20:29;;;;;;;;;;;;;;;21.52;22.15;99943.63;5010540;28;937;-72
2023/12/17 09:22:55;;;;;;;;;;;;;;;21.74;21.92;99939.66;4978566;28;1250;-72
2023/12/17 09:25:20;;;;;;;;;;;;;;;21.72;21.75;99930.75;5011095;28;794;-73
2023/12/17 09:27:46;;;;;;;;;;;;;;;21.44;22.37;99930.63;4994388;28;705;-73
2023/12/17 09:30:12;;;;;;;;;;;;;;;21.57;22.06;99934.75;4994577;28;790;-73
2023/12/17 09:32:37;;;;;;;;;;;;;;;21.41;22.31;99931.44;4978158;28;1526;-73
2023/12/17 09:35:03;;;;;;;;;;;;;;;21.37;22.35;99936.28;5010566;28;1906;-72
2023/12/17 09:37:28;;;;;;;;;;;;;;;21.41;22.47;99942.78;5014035;28;1131;-72
2023/12/17 09:39:54;;;;;;;;;;;;;;;21.78;21.95;99934.00;5014019;28;1100;-72
2023/12/17 09:42:20;;;;;;;;;;;;;;;21.73;21.95;99923.88;5014092;28;1084;-73
2023/12/17 09:44:46;;;;;;;;;;;;;;;21.57;22.16;99923.41;5030244;28;805;-72
2023/12/17 09:47:11;;;;;;;;;;;;;;;21.72;22.29;99924.28;5030109;28;840;-72
2023/12/17 09:49:37;;;;;;;;;;;;;;;21.61;22.24;99929.91;5030520;28;1340;-73
2023/12/17 09:52:08;;;;;;;;;;;;;;;21.48;22.35;99914.47;5019595;28;810;-72
2023/12/17 09:54:34;;;;;;;;;;;;;;;21.74;22.30;99904.84;5014911;28;1898;-73
2023/12/17 09:57:00;;;;;;;;;;;;;;;21.72;22.17;99902.44;5031580;28;1119;-73
2023/12/17 09:59:26;;;;;;;;;;;;;;;21.71;22.41;99899.97;5015134;28;1530;-72
2023/12/17 10:01:51;;;;;;;;;;;;;;;21.53;22.68;99894.25;5015394;28;1318;-73
2023/12/17 10:04:21;;;;;;;;;;;;;;;21.46;22.63;99899.91;5014944;28;771;-72
2023/12/17 10:06:47;;;;;;;;;;;;;;;21.40;22.74;99890.16;5014926;28;799;-73
2023/12/17 10:09:14;;;;;;;;;;;;;;;21.60;22.71;99888.59;5016240;28;872;-72
2023/12/17 10:11:40;;;;;;;;;;;;;;;21.55;22.57;99891.81;5014967;28;1230;-72
2023/12/17 10:14:05;;;;;;;;;;;;;;;21.33;22.95;99900.25;5014841;28;1227;-73
2023/12/17 10:16:31;;;;;;;;;;;;;;;21.50;22.74;99892.22;5015256;28;1910;-73
2023/12/17 10:18:57;;;;;;;;;;;;;;;21.77;22.51;99896.38;5017801;28;1367;-72
2023/12/17 10:21:23;;;;;;;;;;;;;;;21.61;22.38;99907.25;5017738;28;886;-73
2023/12/17 10:23:49;;;;;;;;;;;;;;;21.23;22.99;99891.66;5034434;28;747;-73
2023/12/17 10:26:14;;;;;;;;;;;;;;;21.55;22.47;99897.50;5034196;28;766;-72
2023/12/17 10:28:44;;;;;;;;;;;;;;;21.61;22.47;99883.78;5034629;28;795;-73
2023/12/17 10:31:10;;;;;;;;;;;;;;;21.70;22.25;99870.84;5017526;28;1054;-73
2023/12/17 10:33:36;;;;;;;;;;;;;;;21.56;22.70;99865.16;5014408;28;1109;-73
2023/12/17 10:36:01;;;;;;;;;;;;;;;21.65;22.45;99867.59;5030814;28;1987;-73
2023/12/17 10:38:27;;;;;;;;;;;;;;;21.66;22.24;99875.69;5031290;28;857;-73
2023/12/17 10:40:52;;;;;;;;;;;;;;;21.38;22.75;99881.25;5031111;28;755;-72
2023/12/17 10:43:18;;;;;;;;;;;;;;;21.78;22.17;99875.31;5032168;28;1127;-73
2023/12/17 10:45:43;;;;;;;;;;;;;;;21.69;22.40;99877.72;5035337;28;795;-73
2023/12/17 10:48:09;;;;;;;;;;;;;;;21.68;22.54;99873.25;5034878;28;838;-72
2023/12/17 10:50:34;;;;;;;;;;;;;;;21.64;22.74;99872.44;5034872;28;1081;-73
2023/12/17 10:53:00;;;;;;;;;;;;;;;21.88;22.21;99881.41;5034949;28;719;-72
2023/12/17 10:55:25;;;;;;;;;;;;;;;21.76;22.64;99880.59;5034851;28;1890;-73
2023/12/17 10:57:54;;;;;;;;;;;;;;;21.67;22.60;99865.19;5034652;28;1289;-73
2023/12/17 11:00:20;;;;;;;;;;;;;;;21.59;22.56;99864.31;5019171;28;751;-72
2023/12/17 11:02:45;;;;;;;;;;;;;;;21.37;23.08;99856.97;5018918;28;791;-73
2023/12/17 11:05:12;;;;;;;;;;;;;;;21.40;22.91;99850.50;5034392;28;1237;-72
2023/12/17 11:07:37;;;;;;;;;;;;;;;21.53;22.77;99840.44;5034584;28;1119;-72
2023/12/17 11:10:03;;;;;;;;;;;;;;;21.43;22.74;99827.06;5036925;28;883;-73
2023/12/17 11:12:28;;;;;;;;;;;;;;;21.51;22.69;99828.72;5003554;28;905;-72
2023/12/17 11:14:54;;;;;;;;;;;;;;;21.54;23.00;99834.38;5019896;28;1898;-72
2023/12/17 11:17:19;;;;;;;;;;;;;;;21.58;22.66;99834.38;5036496;28;770;-73
2023/12/17 11:19:54;;;;;;;;;;;;;;;21.62;22.73;99829.56;5036558;28;1005;-73
2023/12/17 11:22:22;;;;;;;;;;;;;;;21.68;22.65;99822.28;5036521;28;778;-72
2023/12/17 11:24:48;;;;;;;;;;;;;;;21.53;23.01;99840.44;5019826;28;1100;-73
2023/12/17 11:27:14;;;;;;;;;;;;;;;21.82;22.62;99833.63;5003570;28;1214;-73
2023/12/17 11:29:40;;;;;;;;;;;;;;;21.68;22.63;99833.59;5019532;28;1235;-72
2023/12/17 11:32:06;;;;;;;;;;;;;;;21.66;22.93;99836.03;5003220;28;1310;-73
2023/12/17 11:34:32;;;;;;;;;;;;;;;21.73;22.81;99836.03;5019471;28;1988;-73
2023/12/17 11:37:00;;;;;;;;;;;;;;;21.61;22.93;99839.25;5019788;28;775;-73
2023/12/17 11:39:28;;;;;;;;;;;;;;;21.55;22.83;99852.16;5003078;28;732;-73
2023/12/17 11:41:54;;;;;;;;;;;;;;;21.69;22.90;99846.56;5017080;28;794;-72
2023/12/17 11:44:20;;;;;;;;;;;;;;;21.90;22.74;99839.31;5033602;28;794;-73
2023/12/17 11:46:46;;;;;;;;;;;;;;;21.71;22.71;99824.31;5032274;28;900;-72
2023/12/17 11:49:12;;;;;;;;;;;;;;;21.77;22.80;99814.19;5032519;28;1280;-73
2023/12/17 11:51:37;;;;;;;;;;;;;;;21.74;22.77;99812.16;5015931;28;923;-73
2023/12/17 11:54:03;;;;;;;;;;;;;;;21.88;22.53;99804.91;5015459;28;973;-72
2023/12/17 11:56:29;;;;;;;;;;;;;;;21.67;23.01;99797.19;5015688;28;1906;-73
2023/12/17 11:58:55;;;;;;;;;;;;;;;21.64;23.20;99793.13;5015975;28;787;-73
2023/12/17 12:01:20;;;;;;;;;;;;;;;21.66;23.04;99804.88;5015535;28;1121;-72
2023/12/17 12:03:46;;;;;;;;;;;;;;;21.82;22.69;99796.00;5015491;28;779;-72
2023/12/17 12:06:12;;;;;;;;;;;;;;;21.78;22.82;99803.66;5015964;28;936;-72
2023/12/17 12:08:48;;;;;;;;;;;;;;;21.73;22.72;99802.03;4996054;28;1606;-73
2023/12/17 12:11:14;;;;;;;;;;;;;;;21.96;22.55;99781.00;4980227;28;808;-72
2023/12/17 12:13:43;;;;;;;;;;;;;;;21.92;22.87;99797.22;4979719;28;834;-73
2023/12/17 12:16:09;;;;;;;;;;;;;;;21.85;22.86;99801.63;4980012;28;1976;-73
2023/12/17 12:18:35;;;;;;;;;;;;;;;21.22;23.13;99766.28;4947074;28;882;-73
2023/12/17 12:21:00;;;;;;;;;;;;;;;21.42;23.25;99809.25;4960655;28;873;-72
2023/12/17 12:23:26;;;;;;;;;;;;;;;21.87;22.87;99812.59;4976588;28;720;-73
2023/12/17 12:25:58;;;;;;;;;;;;;;;21.69;23.09;99806.88;4992516;28;876;-72
2023/12/17 12:28:23;;;;;;;;;;;;;;;21.59;23.30;99807.69;4979755;28;811;-72
2023/12/17 12:30:49;;;;;;;;;;;;;;;21.52;23.29;99807.69;4979478;28;1205;-73
2023/12/17 12:33:15;;;;;;;;;;;;;;;21.69;22.87;99814.59;4980676;28;1303;-72
2023/12/17 12:35:41;;;;;;;;;;;;;;;21.45;23.32;99807.63;4998532;28;1969;-73
2023/12/17 12:38:22;;;;;;;;;;;;;;;21.67;23.16;99809.31;4998815;28;1295;-73
2023/12/17 12:40:51;;;;;;;;;;;;;;;21.74;23.16;99803.66;4982435;28;772;-72
2023/12/17 12:43:17;;;;;;;;;;;;;;;21.63;23.38;99799.19;4998990;28;763;-73
2023/12/17 12:45:43;;;;;;;;;;;;;;;21.64;23.34;99798.78;5015500;28;794;-72
2023/12/17 12:48:16;;;;;;;;;;;;;;;21.57;23.16;99798.78;5032604;28;770;-73
2023/12/17 12:50:41;;;;;;;;;;;;;;;21.71;23.23;99795.97;5032629;28;743;-72
2023/12/17 12:53:07;;;;;;;;;;;;;;;21.74;23.22;99792.31;5032643;28;748;-73
2023/12/17 12:55:32;;;;;;;;;;;;;;;21.76;23.24;99798.41;5015977;28;1914;-73